Nanjing, China
Current Conditions -  °F | °C
As of 3:00 AM on Sunday 26 Oct 2014 (Local Time) from ZSNJ Reporting Station
Haze Haze  
Wind Chill: 57°   Ceiling: Unl
Heat Index: 57°   Visibility: 1.5mi
Dew Point: 57°   Wind: 2mph
Humidity: 100%   Direction: 20°NNE
Pressure: 30"   Gusts: NA
Location:  32.05°N, 118.78°E
Report Text: ZSNJ 251900Z 02001MPS 2400 BR NSC 14/14 Q1016 NOSIG
Loading
Personal Weather Stations






























Interactive Weather Map
Tropical Storm Tracking
New forecast layout! Learn more

10-Day Weather Forecast

Advertisements
Track Severe Weather on mobile